createdAt,value
2022-08-16T04:23:39.129Z,71.98
2022-08-16T04:26:30.714Z,72.71
2022-08-16T05:01:58.473Z,62.56
2022-08-16T05:04:47.083Z,62.19
2022-08-16T05:07:35.436Z,61.47
2022-08-16T05:10:25.155Z,61.40
2022-08-16T05:13:15.540Z,61.59
2022-08-16T06:05:10.766Z,50.39
2022-08-16T06:07:59.492Z,51.47
2022-08-16T11:45:18.474Z,37.68
2022-08-16T11:48:07.672Z,37.24
2022-08-16T11:50:57.680Z,37.35
2022-08-16T11:53:45.373Z,37.70
2022-08-16T11:56:51.876Z,37.97
2022-08-16T11:59:41.801Z,38.10
2022-08-16T13:06:10.138Z,46.02
2022-08-16T13:09:15.332Z,46.59
2022-08-16T13:12:23.734Z,46.84
2022-08-16T13:15:19.416Z,46.84
2022-08-16T13:18:26.973Z,47.97
2022-08-16T13:21:19.566Z,48.23
2022-08-16T13:24:11.598Z,48.07
2022-08-16T13:27:00.455Z,48.82
2022-08-16T13:29:57.378Z,48.48
2022-08-16T13:32:45.800Z,48.85
2022-08-16T13:35:35.124Z,49.08
2022-08-16T13:46:37.701Z,44.62
2022-08-16T13:49:27.061Z,45.35
2022-08-16T13:52:18.902Z,46.52
2022-08-16T13:55:17.774Z,47.01
2022-08-16T13:58:37.512Z,47.88
2022-08-16T14:01:15.160Z,48.54
2022-08-16T14:04:05.919Z,49.01
2022-08-16T14:06:57.514Z,50.20
2022-08-16T14:09:46.126Z,51.79
2022-08-16T14:12:39.695Z,52.75
2022-08-16T14:15:28.481Z,52.49
2022-08-16T14:18:20.876Z,53.40
2022-08-16T14:21:09.407Z,53.56
2022-08-16T14:24:00.387Z,54.02
2022-08-16T14:26:48.094Z,54.92
2022-08-16T14:29:37.527Z,54.50
2022-08-16T14:32:34.150Z,55.61
2022-08-16T14:35:48.393Z,55.55
2022-08-16T14:38:48.552Z,55.47
2022-08-16T14:41:39.479Z,57.08
2022-08-16T14:44:31.430Z,56.52
2022-08-16T14:47:31.513Z,56.99
2022-08-16T14:50:26.545Z,57.63
2022-08-16T14:53:16.637Z,57.46
2022-08-16T14:56:06.071Z,57.93
2022-08-16T14:58:53.701Z,58.46
2022-08-16T15:01:58.878Z,58.57
2022-08-16T15:04:54.628Z,58.45
2022-08-16T15:07:46.237Z,58.40
2022-08-16T15:13:35.635Z,57.02
2022-08-16T15:16:29.187Z,57.22
2022-08-16T15:19:30.377Z,57.86
2022-08-16T15:22:33.407Z,59.64
2022-08-16T15:25:36.231Z,61.81
2022-08-16T15:28:37.271Z,62.99
2022-08-16T15:31:27.576Z,58.71
2022-08-16T15:34:22.028Z,58.71
2022-08-16T15:37:14.600Z,61.13
2022-08-16T15:40:07.717Z,63.15
2022-08-16T15:43:14.978Z,62.33
2022-08-16T15:49:23.632Z,59.77
2022-08-16T15:52:18.370Z,63.35
2022-08-16T15:55:23.825Z,65.97
2022-08-16T15:58:35.064Z,59.98
2022-08-16T16:01:33.807Z,61.99
2022-08-16T16:04:35.659Z,59.66
2022-08-16T16:07:25.483Z,59.54
2022-08-16T16:10:13.712Z,62.50
2022-08-16T16:13:09.394Z,66.46
2022-08-16T16:16:03.543Z,66.09
2022-08-16T16:18:54.567Z,63.64
2022-08-16T16:21:42.661Z,62.77
2022-08-16T16:24:31.344Z,62.10
2022-08-16T16:27:19.393Z,63.20
2022-08-16T16:30:33.043Z,61.63
2022-08-16T16:33:24.699Z,61.09
2022-08-16T16:36:17.480Z,60.84
2022-08-16T16:39:09.116Z,63.92
2022-08-16T16:41:58.256Z,65.27
2022-08-16T16:45:06.225Z,64.80
2022-08-16T16:48:13.132Z,64.50
2022-08-16T16:51:10.109Z,61.94
2022-08-16T16:54:01.171Z,62.69
2022-08-16T16:56:50.618Z,63.71
2022-08-16T16:59:39.585Z,62.26
2022-08-16T17:02:38.467Z,62.35
2022-08-16T17:05:32.507Z,62.97
2022-08-16T17:08:24.099Z,63.30
2022-08-16T17:11:15.023Z,63.37
2022-08-16T17:14:04.391Z,62.71
2022-08-16T17:16:52.031Z,63.35
2022-08-16T17:19:42.720Z,63.17
2022-08-16T17:22:32.901Z,62.83
2022-08-16T17:25:22.418Z,62.89
2022-08-16T17:28:59.849Z,62.72
2022-08-16T17:31:18.371Z,62.73
2022-08-16T17:34:31.370Z,62.16
2022-08-16T17:37:22.089Z,62.02
2022-08-16T17:40:40.304Z,62.24
2022-08-16T17:43:38.042Z,61.94
2022-08-16T17:46:41.340Z,62.28
2022-08-16T17:49:40.561Z,62.05
2022-08-16T17:52:29.418Z,62.32
2022-08-16T17:55:25.645Z,62.20
2022-08-16T17:58:22.212Z,61.97
2022-08-16T18:01:13.470Z,61.85
2022-08-16T18:04:09.941Z,61.94
2022-08-16T18:06:58.827Z,61.91
2022-08-16T18:09:46.950Z,61.56
2022-08-16T18:12:51.194Z,61.66
2022-08-16T18:15:44.434Z,61.52
2022-08-16T18:18:32.004Z,61.10
2022-08-16T18:21:39.155Z,61.18
2022-08-16T18:24:27.731Z,60.93
2022-08-16T18:27:16.938Z,59.14
2022-08-16T18:30:17.946Z,60.16
2022-08-16T18:33:06.476Z,65.36
2022-08-16T18:35:57.930Z,66.22
2022-08-16T18:38:46.256Z,65.35
2022-08-16T18:41:37.718Z,64.54
2022-08-16T18:44:31.158Z,64.06
2022-08-16T18:47:22.894Z,62.86
2022-08-16T18:50:10.913Z,63.71
2022-08-16T18:53:07.312Z,63.86
2022-08-16T18:56:01.962Z,63.83
2022-08-16T18:58:49.976Z,63.69
2022-08-16T19:01:38.190Z,63.58
2022-08-16T19:04:55.861Z,62.72
2022-08-16T19:07:34.263Z,61.58
2022-08-16T19:10:22.509Z,62.42
2022-08-16T19:13:19.544Z,62.22
2022-08-16T19:16:08.115Z,63.04
2022-08-16T19:18:56.465Z,63.26
2022-08-16T19:21:44.741Z,63.19
2022-08-16T19:24:32.958Z,63.71
2022-08-16T19:27:20.793Z,63.18
2022-08-16T19:30:10.265Z,63.30
2022-08-16T19:32:58.410Z,63.48
2022-08-16T19:35:46.450Z,62.29
2022-08-16T19:38:34.608Z,62.91
2022-08-16T19:41:22.467Z,63.15
2022-08-16T19:44:10.787Z,61.81
2022-08-16T19:46:59.433Z,63.04
2022-08-16T19:49:47.689Z,63.73
2022-08-16T19:52:38.482Z,63.03
2022-08-16T19:55:26.732Z,64.32
2022-08-16T19:58:15.694Z,63.47
2022-08-16T20:01:04.160Z,63.59
2022-08-16T20:03:52.425Z,63.17
2022-08-16T20:06:41.871Z,64.58
2022-08-16T20:09:30.310Z,63.91
2022-08-16T20:12:25.344Z,64.25
2022-08-16T20:15:15.997Z,64.37
2022-08-16T20:18:24.699Z,64.60
2022-08-16T20:21:13.914Z,64.94
2022-08-16T20:24:32.103Z,64.94
2022-08-16T20:27:12.738Z,64.56
2022-08-16T20:30:05.035Z,64.70
2022-08-16T20:32:54.319Z,64.48
2022-08-16T20:35:43.921Z,63.60
2022-08-16T20:38:32.075Z,64.38
2022-08-16T20:41:20.303Z,63.70
2022-08-16T20:44:10.683Z,63.29
2022-08-16T20:46:58.960Z,64.01
2022-08-16T20:49:47.087Z,64.16
2022-08-16T20:52:35.541Z,64.81
2022-08-16T20:55:24.651Z,64.85
2022-08-16T20:58:17.587Z,64.39
2022-08-16T21:01:07.451Z,64.66
2022-08-16T21:03:55.791Z,64.39
2022-08-16T21:06:53.696Z,62.98
2022-08-16T21:09:42.524Z,63.15
2022-08-16T21:12:34.723Z,62.42
2022-08-16T21:15:27.730Z,63.07
2022-08-16T21:18:15.871Z,62.71
2022-08-16T21:21:04.005Z,63.15
2022-08-16T21:23:52.256Z,63.20
2022-08-16T21:26:40.296Z,63.46
2022-08-16T21:29:42.958Z,63.37
2022-08-16T21:32:35.098Z,62.76
2022-08-16T21:35:23.665Z,63.57
2022-08-16T21:38:28.590Z,63.70
2022-08-16T21:41:19.191Z,63.45
2022-08-16T21:44:14.413Z,63.22
2022-08-16T21:47:10.277Z,63.49
2022-08-16T21:50:10.210Z,63.73
2022-08-16T21:53:14.047Z,63.30
2022-08-16T21:56:14.963Z,63.68
2022-08-16T21:59:14.387Z,63.50
2022-08-16T22:02:11.570Z,63.62
2022-08-16T22:05:02.530Z,63.82
2022-08-16T22:08:21.694Z,63.60
2022-08-16T22:11:33.118Z,63.02
2022-08-16T22:14:47.832Z,63.55
2022-08-16T22:17:38.108Z,62.80
2022-08-16T22:20:29.120Z,62.82
2022-08-16T22:23:24.861Z,62.71
2022-08-16T22:26:32.471Z,62.67
2022-08-16T22:29:20.306Z,62.31
2022-08-16T22:32:08.388Z,62.53
2022-08-16T22:34:59.511Z,62.65
2022-08-16T22:38:46.427Z,63.05
2022-08-16T22:41:07.710Z,62.39
2022-08-16T22:43:56.677Z,62.78
2022-08-16T22:46:45.531Z,63.00
2022-08-16T22:49:33.828Z,63.33
2022-08-16T22:52:36.892Z,62.91
2022-08-16T22:55:31.076Z,63.28
2022-08-16T22:58:20.488Z,63.02
2022-08-16T23:01:27.125Z,62.91
2022-08-16T23:04:15.093Z,63.38
2022-08-16T23:07:05.559Z,63.16
2022-08-16T23:09:54.278Z,62.94
2022-08-16T23:12:55.248Z,63.01
2022-08-16T23:15:51.859Z,63.40
2022-08-16T23:18:41.747Z,63.72
2022-08-16T23:21:29.739Z,62.80
2022-08-16T23:24:21.805Z,63.10
2022-08-16T23:27:09.772Z,63.53
2022-08-16T23:29:57.772Z,62.65
2022-08-16T23:32:53.761Z,63.61
2022-08-16T23:35:46.925Z,63.42
2022-08-16T23:38:38.904Z,63.95
2022-08-16T23:41:27.755Z,64.09
2022-08-16T23:44:57.468Z,63.88
2022-08-16T23:47:24.015Z,63.85
2022-08-16T23:50:12.183Z,63.76
2022-08-16T23:53:20.088Z,63.38
2022-08-16T23:56:18.073Z,63.32
2022-08-16T23:59:06.481Z,63.49
